USAF Thule Airport

Airport
ICAO code: 
BGTL
IATA Code: 
THU
Summary
ICAO Region: 
NAT
Territory: 
Location: 
Thule,
Serving: 
Thule
Elevation: 
251 ft
Coordinates: 
Aerial View: 
76° 31' 51.792" N, 68° 42' 23.582" W
Airport WX: 
Low Level Turbulence
Metar
Observation
BGTL 170256Z AUTO 19005KT 9999 CLR M21/M23 A2902 RMK AO2 PRESFR SLP820 T12101228 57057 TSNO $
Station
Thule A. B.
Date/Time
2022-01-17 02:56:00
Wind direction
190°
Wind speed
05 kts
Lowest cloud amount
n/a
Temperature
-21°C
Dew point
-22.8°C
Humidity
85%
Weather condition
n/a

Description

Military (USA) and civil airport in northwest Greenland.

Climatology

Tundra climate (Köppen climate classification ET) - warmest month has an average temperature of 0 - 10 degrees C.

Runways

Designator Length Width Surface Rops
8/26 3047 43 ASPH No/No
08T/26T 3047 43 ASP No/No
Airport map: 
Aerial View: 

SKYbrary Partners:

Safety knowledge contributed by: